Time;durP1;ratioP1;P1;durP2;ratioP2;P2;SDS_P1;SDS_P2;PMS_P1;PMS_P2;Temp;Humidity;BMP_temperature;BMP_pressure;BME280_temperature;BME280_humidity;BME280_pressure;Samples;Min_cycle;Max_cycle;Signal;HPM_P1;HPM_P2
2023/04/16 00:01:50;;;;;;;;;;;;;;;7.13;92.98;98521.36;135555;1277;234317;-59
2023/04/16 00:04:52;;;;;;;;;;;;;;;6.97;94.13;98525.35;135736;1277;22503;-60
2023/04/16 00:07:55;;;;;;;;;;;;;;;6.97;93.77;98529.88;135711;1278;24265;-60
2023/04/16 00:10:57;;;;;;;;;;;;;;;6.89;94.03;98528.33;135694;1278;22509;-59
2023/04/16 00:13:59;;;;;;;;;;;;;;;6.84;94.58;98527.71;135731;1277;22511;-60
2023/04/16 00:17:02;;;;;;;;;;;;;;;6.79;94.04;98527.27;135697;1278;22514;-60
2023/04/16 00:20:04;;;;;;;;;;;;;;;6.65;94.11;98530.06;135734;1277;22610;-60
2023/04/16 00:23:07;;;;;;;;;;;;;;;6.59;94.01;98531.06;135766;1277;22526;-59
2023/04/16 00:26:09;;;;;;;;;;;;;;;6.37;95.05;98535.24;135733;1261;22502;-60
2023/04/16 00:29:11;;;;;;;;;;;;;;;6.30;95.48;98537.33;135731;1278;22539;-59
2023/04/16 00:32:14;;;;;;;;;;;;;;;6.18;95.52;98542.74;135739;1278;25386;-60
2023/04/16 00:35:16;;;;;;;;;;;;;;;6.11;96.13;98540.29;135734;1268;22512;-60
2023/04/16 00:38:19;;;;;;;;;;;;;;;6.01;97.36;98541.30;135724;1278;22498;-59
2023/04/16 00:41:22;;;;;;;;;;;;;;;5.97;98.09;98548.06;135738;1277;22531;-59
2023/04/16 00:44:24;;;;;;;;;;;;;;;5.96;99.05;98551.89;135722;1270;24224;-59
2023/04/16 00:47:27;;;;;;;;;;;;;;;5.90;97.31;98554.08;135749;1278;22512;-59
2023/04/16 00:50:29;;;;;;;;;;;;;;;5.72;97.39;98557.16;135739;1278;26631;-60
2023/04/16 00:53:31;;;;;;;;;;;;;;;5.65;98.53;98556.77;135741;1278;22526;-60
2023/04/16 00:56:34;;;;;;;;;;;;;;;5.66;99.46;98559.70;135744;1260;22541;-60
2023/04/16 00:59:36;;;;;;;;;;;;;;;5.66;99.73;98558.64;135731;1278;22513;-60
2023/04/16 01:02:38;;;;;;;;;;;;;;;5.60;100.00;98557.70;135760;1278;22515;-62
2023/04/16 01:05:41;;;;;;;;;;;;;;;5.69;99.97;98557.63;135664;1277;22510;-62
2023/04/16 01:08:43;;;;;;;;;;;;;;;5.69;99.58;98561.10;135741;1277;22502;-62
2023/04/16 01:11:45;;;;;;;;;;;;;;;5.68;98.83;98558.37;135715;1277;25874;-59
2023/04/16 01:14:48;;;;;;;;;;;;;;;5.71;98.85;98563.25;135748;1278;22525;-59
2023/04/16 01:17:50;;;;;;;;;;;;;;;5.90;98.58;98558.59;135762;1277;22521;-60
2023/04/16 01:20:52;;;;;;;;;;;;;;;6.04;97.76;98554.52;135725;1277;22501;-60
2023/04/16 01:23:55;;;;;;;;;;;;;;;5.98;95.95;98559.63;135738;1278;22513;-59
2023/04/16 01:26:57;;;;;;;;;;;;;;;5.71;96.74;98560.48;135738;1277;22559;-59
2023/04/16 01:30:00;;;;;;;;;;;;;;;5.48;99.31;98558.75;135705;1277;22518;-59
2023/04/16 01:33:02;;;;;;;;;;;;;;;5.42;98.98;98565.05;135700;1277;22511;-59
2023/04/16 01:36:04;;;;;;;;;;;;;;;5.29;97.94;98564.96;135721;1277;24039;-59
2023/04/16 01:39:10;;;;;;;;;;;;;;;5.08;98.23;98568.09;135730;1277;22528;-59
2023/04/16 01:42:12;;;;;;;;;;;;;;;4.99;98.09;98565.71;135716;1277;22501;-59
2023/04/16 01:45:14;;;;;;;;;;;;;;;4.89;99.77;98566.98;135724;1277;22508;-59
2023/04/16 01:48:17;;;;;;;;;;;;;;;4.91;99.20;98572.81;135713;1277;22520;-59
2023/04/16 01:51:19;;;;;;;;;;;;;;;4.80;98.40;98574.30;135701;1277;22516;-59
2023/04/16 01:54:22;;;;;;;;;;;;;;;4.72;99.01;98576.37;135752;1277;22616;-59
2023/04/16 01:57:24;;;;;;;;;;;;;;;4.57;99.77;98584.73;135701;1277;22511;-59
2023/04/16 02:00:26;;;;;;;;;;;;;;;4.49;99.99;98579.19;135723;1277;22517;-59
2023/04/16 02:03:29;;;;;;;;;;;;;;;4.43;99.80;98580.10;135741;1277;22522;-59
2023/04/16 02:06:31;;;;;;;;;;;;;;;4.40;100.00;98586.29;135721;1277;22526;-59
2023/04/16 02:09:34;;;;;;;;;;;;;;;4.26;100.00;98585.13;135753;1277;24496;-59
2023/04/16 02:12:36;;;;;;;;;;;;;;;4.13;100.00;98586.98;135740;1277;22511;-59
2023/04/16 02:15:39;;;;;;;;;;;;;;;4.09;100.00;98591.83;135746;1277;22510;-59
2023/04/16 02:18:41;;;;;;;;;;;;;;;4.08;100.00;98588.73;135757;1277;22512;-59
2023/04/16 02:21:43;;;;;;;;;;;;;;;4.01;100.00;98591.79;135729;1277;22509;-59
2023/04/16 02:24:46;;;;;;;;;;;;;;;4.04;100.00;98596.52;135740;1277;22510;-59
2023/04/16 02:27:48;;;;;;;;;;;;;;;4.01;100.00;98600.27;135720;1277;22720;-59
2023/04/16 02:30:50;;;;;;;;;;;;;;;3.91;100.00;98605.50;135709;1277;22514;-59
2023/04/16 02:33:53;;;;;;;;;;;;;;;3.84;100.00;98600.20;135724;1277;25345;-59
2023/04/16 02:36:57;;;;;;;;;;;;;;;3.80;100.00;98605.69;135733;1277;22524;-59
2023/04/16 02:39:59;;;;;;;;;;;;;;;3.88;100.00;98609.39;135723;1277;23593;-59
2023/04/16 02:43:02;;;;;;;;;;;;;;;3.93;100.00;98608.18;135729;1277;22509;-59
2023/04/16 02:46:04;;;;;;;;;;;;;;;3.91;100.00;98612.56;135693;1277;22526;-59
2023/04/16 02:49:07;;;;;;;;;;;;;;;3.94;100.00;98616.96;135715;1277;26631;-59
2023/04/16 02:52:09;;;;;;;;;;;;;;;3.84;100.00;98618.36;135739;1277;22505;-59
2023/04/16 02:55:11;;;;;;;;;;;;;;;3.74;100.00;98616.46;135759;1277;22502;-59
2023/04/16 02:58:14;;;;;;;;;;;;;;;3.70;100.00;98619.40;135731;1277;22494;-59
2023/04/16 03:01:16;;;;;;;;;;;;;;;3.67;100.00;98616.73;135718;1277;25638;-59
2023/04/16 03:04:19;;;;;;;;;;;;;;;3.65;100.00;98621.48;135706;1277;22508;-59
2023/04/16 03:07:21;;;;;;;;;;;;;;;3.67;100.00;98623.82;135746;1277;22511;-59
2023/04/16 03:10:24;;;;;;;;;;;;;;;3.74;100.00;98627.02;135756;1277;22515;-59
2023/04/16 03:13:26;;;;;;;;;;;;;;;3.68;100.00;98630.15;135709;1277;22512;-59
2023/04/16 03:16:28;;;;;;;;;;;;;;;3.58;100.00;98627.79;135753;1277;22497;-59
2023/04/16 03:19:31;;;;;;;;;;;;;;;3.52;100.00;98630.94;135765;1277;22516;-59
2023/04/16 03:22:33;;;;;;;;;;;;;;;3.47;100.00;98636.45;135685;1277;22521;-59
2023/04/16 03:25:36;;;;;;;;;;;;;;;3.40;100.00;98640.86;135707;1277;22519;-59
2023/04/16 03:28:38;;;;;;;;;;;;;;;3.36;100.00;98643.60;135749;1277;22504;-59
2023/04/16 03:31:40;;;;;;;;;;;;;;;3.32;100.00;98643.90;135703;1277;22509;-59
2023/04/16 03:34:43;;;;;;;;;;;;;;;3.18;100.00;98643.50;135726;1277;22507;-59
2023/04/16 03:37:45;;;;;;;;;;;;;;;3.10;100.00;98642.71;135720;1277;22527;-59
2023/04/16 03:40:47;;;;;;;;;;;;;;;3.07;100.00;98645.05;135728;1277;22501;-59
2023/04/16 03:43:50;;;;;;;;;;;;;;;3.06;100.00;98645.79;135720;1277;24279;-59
2023/04/16 03:46:52;;;;;;;;;;;;;;;2.97;100.00;98651.61;135699;1277;22506;-59
2023/04/16 03:49:54;;;;;;;;;;;;;;;2.92;100.00;98658.86;135748;1277;25240;-59
2023/04/16 03:52:57;;;;;;;;;;;;;;;2.92;100.00;98662.15;135660;1277;22514;-59
2023/04/16 03:55:59;;;;;;;;;;;;;;;2.90;100.00;98664.44;135735;1277;22541;-59
2023/04/16 03:59:01;;;;;;;;;;;;;;;2.86;100.00;98669.73;135739;1277;24267;-59
2023/04/16 04:02:04;;;;;;;;;;;;;;;2.82;100.00;98672.50;135750;1277;22539;-59
2023/04/16 04:05:06;;;;;;;;;;;;;;;2.84;100.00;98685.36;135709;1277;23882;-59
2023/04/16 04:08:09;;;;;;;;;;;;;;;2.87;100.00;98685.98;135732;1277;22510;-59
2023/04/16 04:11:11;;;;;;;;;;;;;;;2.87;100.00;98689.77;135717;1277;24040;-59
2023/04/16 04:14:14;;;;;;;;;;;;;;;2.84;100.00;98692.11;135717;1277;22522;-59
2023/04/16 04:17:16;;;;;;;;;;;;;;;2.78;100.00;98691.59;135729;1277;22550;-59
2023/04/16 04:20:18;;;;;;;;;;;;;;;2.83;100.00;98691.96;135718;1277;22509;-59
2023/04/16 04:23:21;;;;;;;;;;;;;;;2.85;100.00;98692.08;135716;1277;22507;-59
2023/04/16 04:26:23;;;;;;;;;;;;;;;3.00;100.00;98695.02;135743;1254;22501;-59
2023/04/16 04:29:26;;;;;;;;;;;;;;;3.24;100.00;98701.02;135717;1277;22517;-59
2023/04/16 04:32:28;;;;;;;;;;;;;;;3.45;100.00;98707.05;135743;1277;22509;-59
2023/04/16 04:35:30;;;;;;;;;;;;;;;3.64;100.00;98710.71;135742;1277;22510;-59
2023/04/16 04:38:33;;;;;;;;;;;;;;;3.80;100.00;98713.30;135747;1277;22520;-59
2023/04/16 04:41:35;;;;;;;;;;;;;;;3.98;100.00;98716.31;135716;1277;22514;-59
2023/04/16 04:44:38;;;;;;;;;;;;;;;4.22;100.00;98719.73;135706;1257;22502;-59
2023/04/16 04:47:40;;;;;;;;;;;;;;;4.60;100.00;98720.23;135735;1260;23602;-59
2023/04/16 04:50:42;;;;;;;;;;;;;;;4.97;100.00;98719.86;135736;1277;22509;-59
2023/04/16 04:53:45;;;;;;;;;;;;;;;5.30;99.83;98725.47;135693;1277;25227;-59
2023/04/16 04:56:47;;;;;;;;;;;;;;;5.62;99.54;98728.63;135732;1277;22527;-60
2023/04/16 04:59:50;;;;;;;;;;;;;;;5.91;98.76;98732.61;135733;1277;22508;-59
2023/04/16 05:02:53;;;;;;;;;;;;;;;6.08;98.16;98737.13;135731;1277;22508;-60
2023/04/16 05:05:55;;;;;;;;;;;;;;;6.23;98.01;98744.45;135729;1277;22500;-59
2023/04/16 05:08:57;;;;;;;;;;;;;;;6.44;98.00;98749.92;135744;1277;22511;-59
2023/04/16 05:12:00;;;;;;;;;;;;;;;6.61;98.20;98747.60;135753;1277;22498;-59
2023/04/16 05:15:02;;;;;;;;;;;;;;;6.79;99.15;98748.84;135769;1277;22512;-60
2023/04/16 05:18:05;;;;;;;;;;;;;;;7.02;98.84;98748.84;135732;1277;22528;-60
2023/04/16 05:21:07;;;;;;;;;;;;;;;7.11;98.84;98747.17;135743;1277;22515;-60
2023/04/16 05:24:09;;;;;;;;;;;;;;;7.23;99.54;98752.86;135753;1277;24316;-60
2023/04/16 05:27:12;;;;;;;;;;;;;;;7.47;99.93;98755.17;135773;1277;22501;-60
2023/04/16 05:30:14;;;;;;;;;;;;;;;7.78;99.99;98755.73;135728;1277;22542;-60
2023/04/16 05:33:16;;;;;;;;;;;;;;;8.05;99.90;98751.05;135712;1275;22622;-61
2023/04/16 05:36:19;;;;;;;;;;;;;;;8.22;100.00;98750.52;135727;1277;23822;-62
2023/04/16 05:39:21;;;;;;;;;;;;;;;8.39;99.83;98754.52;135732;1277;25227;-62
2023/04/16 05:42:24;;;;;;;;;;;;;;;8.52;99.75;98753.50;135688;1277;22517;-62
2023/04/16 05:45:26;;;;;;;;;;;;;;;8.59;99.49;98761.32;135715;1256;22511;-62
2023/04/16 05:48:29;;;;;;;;;;;;;;;8.59;99.94;98768.49;135747;1277;26600;-62
2023/04/16 05:51:32;;;;;;;;;;;;;;;8.76;99.52;98769.84;135739;1277;22514;-62
2023/04/16 05:54:34;;;;;;;;;;;;;;;8.89;99.78;98768.08;135711;1277;22544;-60
2023/04/16 05:57:36;;;;;;;;;;;;;;;9.09;99.78;98777.79;135743;1277;22513;-60
2023/04/16 06:00:39;;;;;;;;;;;;;;;9.37;99.03;98776.36;135746;1277;24287;-60
2023/04/16 06:03:41;;;;;;;;;;;;;;;9.74;98.30;98779.87;135748;1277;22511;-60
2023/04/16 06:06:43;;;;;;;;;;;;;;;9.99;97.12;98778.91;135742;1259;22516;-59
2023/04/16 06:09:46;;;;;;;;;;;;;;;10.03;96.08;98777.10;135741;1277;22527;-60
2023/04/16 06:12:48;;;;;;;;;;;;;;;9.99;97.35;98781.73;135747;1277;22508;-60
2023/04/16 06:15:51;;;;;;;;;;;;;;;10.18;97.48;98784.81;135783;1277;22510;-59
2023/04/16 06:18:53;;;;;;;;;;;;;;;10.42;96.77;98794.77;135765;1277;22637;-60
2023/04/16 06:21:55;;;;;;;;;;;;;;;10.60;95.19;98798.17;135731;1277;22509;-60
2023/04/16 06:24:58;;;;;;;;;;;;;;;10.84;95.34;98797.30;135734;1277;24390;-62
2023/04/16 06:28:00;;;;;;;;;;;;;;;11.04;94.31;98795.30;135754;1277;25656;-60
2023/04/16 06:31:03;;;;;;;;;;;;;;;11.21;91.29;98796.66;135757;1277;22509;-60
2023/04/16 06:34:05;;;;;;;;;;;;;;;11.38;90.62;98804.33;135744;1277;22515;-60
2023/04/16 06:37:07;;;;;;;;;;;;;;;11.52;91.10;98802.58;135731;1276;24291;-60
2023/04/16 06:40:10;;;;;;;;;;;;;;;11.57;90.85;98805.92;135743;1259;22504;-59
2023/04/16 06:43:14;;;;;;;;;;;;;;;11.56;90.52;98806.67;135723;1277;22554;-60
2023/04/16 06:46:16;;;;;;;;;;;;;;;11.67;90.86;98807.86;135746;1277;25475;-60
2023/04/16 06:49:19;;;;;;;;;;;;;;;11.83;90.09;98807.75;135735;1261;22585;-60
2023/04/16 06:52:21;;;;;;;;;;;;;;;11.79;90.55;98813.07;135748;1277;22586;-60
2023/04/16 06:55:24;;;;;;;;;;;;;;;11.90;90.82;98816.75;135764;1277;22540;-61
2023/04/16 06:58:27;;;;;;;;;;;;;;;12.13;90.43;98820.33;135740;1259;22548;-61
2023/04/16 07:01:30;;;;;;;;;;;;;;;12.33;90.22;98825.64;135750;1277;24912;-61
2023/04/16 07:04:32;;;;;;;;;;;;;;;12.52;89.09;98826.44;135711;1277;25464;-60
2023/04/16 07:07:35;;;;;;;;;;;;;;;12.68;88.81;98830.98;135738;1274;24260;-60
2023/04/16 07:10:37;;;;;;;;;;;;;;;12.83;88.91;98837.62;135756;1262;22554;-60
2023/04/16 07:13:40;;;;;;;;;;;;;;;13.00;88.15;98844.48;135742;1277;22694;-60
2023/04/16 07:16:42;;;;;;;;;;;;;;;13.11;88.15;98849.14;135710;1277;22510;-60
2023/04/16 07:19:45;;;;;;;;;;;;;;;13.32;87.45;98847.34;135748;1277;22501;-59
2023/04/16 07:22:47;;;;;;;;;;;;;;;13.38;87.54;98846.73;135731;1273;24222;-60
2023/04/16 07:25:50;;;;;;;;;;;;;;;13.53;86.04;98847.95;135756;1275;22511;-59
2023/04/16 07:28:52;;;;;;;;;;;;;;;13.53;85.07;98850.62;135756;1277;22493;-60
2023/04/16 07:31:55;;;;;;;;;;;;;;;13.50;84.67;98854.85;135707;1277;22521;-60
2023/04/16 07:34:57;;;;;;;;;;;;;;;13.53;83.99;98851.67;135746;1260;22497;-60
2023/04/16 07:38:00;;;;;;;;;;;;;;;13.72;85.12;98855.15;135764;1277;22626;-60
2023/04/16 07:41:02;;;;;;;;;;;;;;;14.10;83.65;98852.41;135760;1277;24194;-60
2023/04/16 07:44:04;;;;;;;;;;;;;;;14.60;81.76;98855.45;135755;1277;22533;-60
2023/04/16 07:47:07;;;;;;;;;;;;;;;14.82;78.34;98855.70;135763;1258;22513;-60
2023/04/16 07:50:10;;;;;;;;;;;;;;;14.74;78.38;98858.27;135741;1261;22511;-60
2023/04/16 07:53:12;;;;;;;;;;;;;;;14.61;78.02;98859.96;135742;1277;22501;-60
2023/04/16 07:56:14;;;;;;;;;;;;;;;14.65;76.23;98861.14;135764;1277;22521;-60
2023/04/16 07:59:17;;;;;;;;;;;;;;;14.52;77.73;98867.16;135759;1277;22508;-60
2023/04/16 08:02:20;;;;;;;;;;;;;;;14.60;77.87;98868.48;135733;1277;22533;-60
2023/04/16 08:05:23;;;;;;;;;;;;;;;14.61;76.24;98872.66;135749;1277;22501;-60
2023/04/16 08:08:25;;;;;;;;;;;;;;;14.69;76.86;98877.15;135738;1277;22511;-61
2023/04/16 08:11:28;;;;;;;;;;;;;;;14.62;75.36;98877.52;135758;1260;24327;-61
2023/04/16 08:14:30;;;;;;;;;;;;;;;14.52;75.25;98883.66;135765;1277;22508;-61
2023/04/16 08:17:34;;;;;;;;;;;;;;;14.44;74.70;98885.41;135741;1259;24435;-61
2023/04/16 08:20:36;;;;;;;;;;;;;;;14.48;75.48;98888.40;135740;1271;22582;-61
2023/04/16 08:23:39;;;;;;;;;;;;;;;14.58;74.57;98889.06;135771;1277;22543;-61
2023/04/16 08:26:41;;;;;;;;;;;;;;;14.75;75.31;98889.04;135744;1277;22515;-61
2023/04/16 08:29:43;;;;;;;;;;;;;;;14.83;74.11;98888.52;135761;1277;22538;-61
2023/04/16 08:32:46;;;;;;;;;;;;;;;14.98;73.60;98890.92;135728;1277;25230;-60
2023/04/16 08:35:48;;;;;;;;;;;;;;;14.97;73.78;98895.25;135727;1266;22549;-60
2023/04/16 08:38:51;;;;;;;;;;;;;;;15.25;72.21;98894.48;135746;1277;22511;-61
2023/04/16 08:41:53;;;;;;;;;;;;;;;15.25;70.89;98898.33;135729;1277;22845;-60
2023/04/16 08:44:56;;;;;;;;;;;;;;;15.43;72.51;98899.05;135730;1277;23519;-60
2023/04/16 08:47:58;;;;;;;;;;;;;;;15.98;70.42;98899.39;135727;1277;22501;-60
2023/04/16 08:51:00;;;;;;;;;;;;;;;16.31;69.65;98899.11;135746;1277;22498;-63
2023/04/16 08:54:03;;;;;;;;;;;;;;;16.56;67.50;98899.04;135740;1277;22514;-60
2023/04/16 08:57:05;;;;;;;;;;;;;;;16.14;65.25;98912.90;135743;1277;22491;-61
2023/04/16 09:00:08;;;;;;;;;;;;;;;16.10;68.31;98916.42;135789;1277;22516;-61
2023/04/16 09:03:10;;;;;;;;;;;;;;;16.68;69.54;98916.35;135751;1277;25955;-61
2023/04/16 09:06:13;;;;;;;;;;;;;;;17.16;66.76;98919.84;135737;1277;22498;-60
2023/04/16 09:09:15;;;;;;;;;;;;;;;17.26;64.59;98922.73;135783;1277;22508;-61
2023/04/16 09:12:18;;;;;;;;;;;;;;;16.94;63.23;98926.92;135782;1277;22502;-61
2023/04/16 09:15:20;;;;;;;;;;;;;;;16.71;63.88;98926.83;135781;1277;22512;-61
2023/04/16 09:18:22;;;;;;;;;;;;;;;16.85;65.65;98930.65;135755;1277;22501;-61
2023/04/16 09:21:25;;;;;;;;;;;;;;;17.04;66.14;98932.00;135763;1277;25285;-61
2023/04/16 09:24:27;;;;;;;;;;;;;;;17.34;64.83;98937.01;135741;1277;22520;-61
2023/04/16 09:27:29;;;;;;;;;;;;;;;17.02;63.86;98938.40;135755;1277;22529;-61
2023/04/16 09:30:33;;;;;;;;;;;;;;;16.80;62.89;98931.23;135699;1277;22505;-61
2023/04/16 09:33:35;;;;;;;;;;;;;;;17.05;63.14;98934.92;135760;1277;22607;-61
2023/04/16 09:36:38;;;;;;;;;;;;;;;17.35;65.36;98937.98;135724;1277;22620;-61
2023/04/16 09:39:40;;;;;;;;;;;;;;;17.89;63.73;98936.16;135745;1277;22537;-60
2023/04/16 09:42:43;;;;;;;;;;;;;;;18.25;63.12;98933.81;135753;1277;22613;-64
2023/04/16 09:45:45;;;;;;;;;;;;;;;18.43;60.03;98936.74;135747;1277;22533;-61
2023/04/16 09:48:47;;;;;;;;;;;;;;;18.49;60.76;98941.83;135744;1277;22514;-61
2023/04/16 09:51:53;;;;;;;;;;;;;;;18.60;60.34;98935.55;135762;1277;22502;-59
2023/04/16 09:54:55;;;;;;;;;;;;;;;18.91;60.83;98938.20;135768;1277;22652;-62
2023/04/16 09:57:58;;;;;;;;;;;;;;;19.29;59.29;98938.87;135733;1277;25475;-62
2023/04/16 10:01:00;;;;;;;;;;;;;;;19.38;59.00;98940.17;135714;1277;22503;-62
2023/04/16 10:04:03;;;;;;;;;;;;;;;19.33;58.30;98934.45;135764;1277;22505;-62
2023/04/16 10:07:06;;;;;;;;;;;;;;;19.43;57.85;98939.65;135771;1277;22484;-64
2023/04/16 10:10:09;;;;;;;;;;;;;;;19.42;57.41;98935.02;135785;1259;22556;-62
2023/04/16 10:13:11;;;;;;;;;;;;;;;19.49;56.96;98931.49;135737;1277;25405;-63
2023/04/16 10:16:13;;;;;;;;;;;;;;;19.62;56.69;98934.62;135713;1277;22579;-62
2023/04/16 10:19:16;;;;;;;;;;;;;;;19.84;57.13;98938.01;135747;1277;22511;-62
2023/04/16 10:22:18;;;;;;;;;;;;;;;20.01;56.78;98934.04;135705;1277;22967;-61
2023/04/16 10:25:21;;;;;;;;;;;;;;;20.20;55.56;98932.90;135766;1277;22515;-62
2023/04/16 10:28:23;;;;;;;;;;;;;;;20.30;54.17;98929.44;135760;1277;22520;-64
2023/04/16 10:31:25;;;;;;;;;;;;;;;20.33;54.20;98935.74;135739;1277;22985;-62
2023/04/16 10:34:30;;;;;;;;;;;;;;;20.43;54.38;98933.98;135738;1277;22506;-61
2023/04/16 10:37:32;;;;;;;;;;;;;;;20.32;53.05;98932.45;135752;1277;22501;-62
2023/04/16 10:40:34;;;;;;;;;;;;;;;20.11;53.81;98939.28;135749;1277;22527;-61
2023/04/16 10:43:37;;;;;;;;;;;;;;;20.32;54.84;98933.55;135728;1277;25356;-61
2023/04/16 10:46:39;;;;;;;;;;;;;;;20.59;54.59;98938.29;135709;1277;22508;-62
2023/04/16 10:49:42;;;;;;;;;;;;;;;20.84;53.62;98939.00;135721;1259;22498;-62
2023/04/16 10:52:44;;;;;;;;;;;;;;;20.97;51.09;98933.36;135702;1277;22572;-62
2023/04/16 10:55:47;;;;;;;;;;;;;;;20.69;51.76;98936.02;135729;1277;22884;-62
2023/04/16 10:58:49;;;;;;;;;;;;;;;20.85;50.58;98934.66;135764;1277;22514;-61
2023/04/16 11:01:52;;;;;;;;;;;;;;;20.43;47.11;98938.65;135715;1277;22509;-61
2023/04/16 11:04:54;;;;;;;;;;;;;;;19.78;49.64;98941.25;135744;1277;22501;-61
2023/04/16 11:07:56;;;;;;;;;;;;;;;19.50;50.64;98943.59;135781;1277;22615;-61
2023/04/16 11:10:59;;;;;;;;;;;;;;;19.71;52.45;98943.20;135735;1277;24207;-62
2023/04/16 11:14:01;;;;;;;;;;;;;;;20.07;49.41;98944.10;135716;1277;22510;-61
2023/04/16 11:17:03;;;;;;;;;;;;;;;20.05;48.67;98950.92;135735;1277;22614;-61
2023/04/16 11:20:06;;;;;;;;;;;;;;;19.78;47.96;98951.74;135763;1277;22516;-62
2023/04/16 11:23:08;;;;;;;;;;;;;;;19.80;50.45;98952.04;135771;1259;22507;-61
2023/04/16 11:26:10;;;;;;;;;;;;;;;20.32;51.02;98950.35;135737;1277;26485;-61
2023/04/16 11:29:13;;;;;;;;;;;;;;;20.71;49.41;98952.94;135766;1277;22491;-61
2023/04/16 11:32:16;;;;;;;;;;;;;;;20.56;46.82;98954.89;135745;1277;22505;-61
2023/04/16 11:35:18;;;;;;;;;;;;;;;20.52;48.96;98955.12;135751;1277;22513;-61
2023/04/16 11:38:20;;;;;;;;;;;;;;;20.68;49.43;98956.95;135729;1277;25414;-60
2023/04/16 11:41:23;;;;;;;;;;;;;;;20.97;49.22;98956.11;135726;1277;24912;-61
2023/04/16 11:44:26;;;;;;;;;;;;;;;20.74;49.17;98959.14;135736;1277;22508;-62
2023/04/16 11:47:28;;;;;;;;;;;;;;;21.16;50.12;98955.30;135743;1277;22507;-62
2023/04/16 11:50:31;;;;;;;;;;;;;;;21.74;49.37;98952.44;135739;1277;22528;-61
2023/04/16 11:53:33;;;;;;;;;;;;;;;21.83;45.77;98954.34;135709;1277;23763;-62
2023/04/16 11:56:36;;;;;;;;;;;;;;;21.79;46.42;98955.14;135768;1277;22684;-63
2023/04/16 11:59:38;;;;;;;;;;;;;;;21.90;47.40;98951.76;135782;1277;25405;-62
2023/04/16 12:02:40;;;;;;;;;;;;;;;22.27;47.44;98947.90;135592;1277;183134;-62
2023/04/16 12:05:43;;;;;;;;;;;;;;;22.56;45.37;98947.11;135732;1277;22509;-62
2023/04/16 12:08:45;;;;;;;;;;;;;;;22.11;44.21;98945.84;135760;1277;22517;-62
2023/04/16 12:11:48;;;;;;;;;;;;;;;21.88;44.96;98945.10;135775;1277;22631;-63
2023/04/16 12:14:50;;;;;;;;;;;;;;;21.67;44.33;98946.27;135705;1259;22507;-62
2023/04/16 12:17:53;;;;;;;;;;;;;;;21.81;45.22;98946.99;135740;1277;22598;-62
2023/04/16 12:20:56;;;;;;;;;;;;;;;22.21;45.65;98946.08;135758;1277;22518;-63
2023/04/16 12:23:58;;;;;;;;;;;;;;;22.56;44.53;98941.29;135713;1277;22511;-62
2023/04/16 12:27:01;;;;;;;;;;;;;;;22.90;44.58;98938.84;135724;1277;22518;-62
2023/04/16 12:30:04;;;;;;;;;;;;;;;23.19;44.21;98936.72;135788;1277;22508;-63
2023/04/16 12:33:07;;;;;;;;;;;;;;;23.40;43.50;98939.70;135765;1259;22502;-62
2023/04/16 12:36:10;;;;;;;;;;;;;;;23.31;41.79;98935.54;135741;1277;22513;-62
2023/04/16 12:39:12;;;;;;;;;;;;;;;23.33;43.24;98934.44;135753;1277;22501;-62
2023/04/16 12:42:14;;;;;;;;;;;;;;;23.42;42.56;98935.16;135758;1277;22609;-62
2023/04/16 12:45:17;;;;;;;;;;;;;;;23.52;42.80;98935.30;135722;1277;22504;-62
2023/04/16 12:48:19;;;;;;;;;;;;;;;23.23;41.40;98932.81;135724;1277;22511;-65
2023/04/16 12:51:21;;;;;;;;;;;;;;;23.04;43.31;98933.86;135735;1277;24281;-63
2023/04/16 12:54:27;;;;;;;;;;;;;;;23.05;41.36;98933.02;135737;1277;22504;-61
2023/04/16 12:57:30;;;;;;;;;;;;;;;22.90;41.94;98930.92;135714;1277;25227;-62
2023/04/16 13:00:32;;;;;;;;;;;;;;;23.10;41.93;98926.45;135755;1277;25353;-62
2023/04/16 13:03:35;;;;;;;;;;;;;;;23.34;42.29;98928.75;135717;1277;24311;-62
2023/04/16 13:06:38;;;;;;;;;;;;;;;23.51;39.95;98928.48;135733;1277;22501;-62
2023/04/16 13:09:40;;;;;;;;;;;;;;;22.90;38.47;98925.60;135748;1277;22611;-62
2023/04/16 13:12:43;;;;;;;;;;;;;;;22.69;40.22;98927.75;135710;1277;24273;-63
2023/04/16 13:15:45;;;;;;;;;;;;;;;22.97;41.09;98925.05;135746;1277;22554;-62
2023/04/16 13:18:47;;;;;;;;;;;;;;;23.23;39.78;98926.05;135774;1277;22526;-62
2023/04/16 13:21:53;;;;;;;;;;;;;;;23.05;38.32;98929.99;135752;1277;22508;-62
2023/04/16 13:24:55;;;;;;;;;;;;;;;23.18;40.13;98923.65;135731;1277;22508;-62
2023/04/16 13:27:57;;;;;;;;;;;;;;;23.40;39.97;98925.61;135729;1277;22585;-62
2023/04/16 13:31:00;;;;;;;;;;;;;;;23.58;40.19;98927.67;135736;1277;24219;-62
2023/04/16 13:34:03;;;;;;;;;;;;;;;23.74;38.16;98927.42;135719;1277;22512;-62
2023/04/16 13:37:06;;;;;;;;;;;;;;;23.09;36.56;98925.45;135767;1277;25275;-61
2023/04/16 13:40:08;;;;;;;;;;;;;;;21.89;36.34;98931.11;135683;1277;22494;-62
2023/04/16 13:43:12;;;;;;;;;;;;;;;21.10;37.81;98929.95;135741;1277;22550;-61
2023/04/16 13:46:14;;;;;;;;;;;;;;;21.13;39.21;98927.80;135711;1277;22509;-63
2023/04/16 13:49:17;;;;;;;;;;;;;;;21.76;40.99;98923.63;135744;1277;22524;-63
2023/04/16 13:52:19;;;;;;;;;;;;;;;22.42;39.78;98919.65;135723;1277;22519;-62
2023/04/16 13:55:21;;;;;;;;;;;;;;;22.69;39.70;98917.95;135690;1277;22504;-64
2023/04/16 13:58:24;;;;;;;;;;;;;;;23.05;39.32;98917.65;135740;1277;22519;-62
2023/04/16 14:01:26;;;;;;;;;;;;;;;23.28;39.13;98914.66;135718;1277;22510;-62
2023/04/16 14:04:29;;;;;;;;;;;;;;;23.45;37.13;98916.27;135714;1277;22511;-62
2023/04/16 14:07:31;;;;;;;;;;;;;;;23.27;37.30;98921.35;135759;1259;22509;-62
2023/04/16 14:10:33;;;;;;;;;;;;;;;23.00;35.47;98923.38;135728;1277;22539;-62
2023/04/16 14:13:36;;;;;;;;;;;;;;;22.27;35.68;98925.02;135747;1277;22512;-62
2023/04/16 14:16:38;;;;;;;;;;;;;;;22.12;36.78;98922.15;135734;1277;22647;-62
2023/04/16 14:19:41;;;;;;;;;;;;;;;22.29;36.71;98920.06;135714;1277;22506;-62
2023/04/16 14:22:45;;;;;;;;;;;;;;;22.47;37.30;98920.35;135728;1277;22502;-62
2023/04/16 14:25:47;;;;;;;;;;;;;;;22.64;36.54;98919.34;135743;1277;22521;-62
2023/04/16 14:28:50;;;;;;;;;;;;;;;22.61;36.95;98917.88;135710;1277;22510;-62
2023/04/16 14:31:52;;;;;;;;;;;;;;;22.45;36.24;98918.73;135669;1277;24655;-63
2023/04/16 14:34:54;;;;;;;;;;;;;;;22.26;36.54;98919.22;135715;1277;22512;-62
2023/04/16 14:37:57;;;;;;;;;;;;;;;22.39;37.64;98913.57;135702;1277;22518;-62
2023/04/16 14:41:00;;;;;;;;;;;;;;;22.81;37.49;98910.52;135737;1277;23910;-61
2023/04/16 14:44:03;;;;;;;;;;;;;;;22.87;36.20;98909.33;135728;1277;22533;-61
2023/04/16 14:47:05;;;;;;;;;;;;;;;23.06;36.74;98906.72;135696;1277;22516;-64
2023/04/16 14:50:09;;;;;;;;;;;;;;;23.17;35.75;98914.09;135571;1269;22526;-62
2023/04/16 14:53:11;;;;;;;;;;;;;;;22.83;36.20;98914.19;135575;1269;25243;-62
2023/04/16 14:56:14;;;;;;;;;;;;;;;22.74;36.54;98917.98;135637;1275;22518;-61
2023/04/16 14:59:16;;;;;;;;;;;;;;;22.59;37.12;98923.79;135583;1269;23756;-61
2023/04/16 15:02:18;;;;;;;;;;;;;;;22.27;36.44;98924.03;135590;1274;22499;-63
2023/04/16 15:05:21;;;;;;;;;;;;;;;22.00;37.52;98920.50;135632;1275;23949;-62
2023/04/16 15:08:23;;;;;;;;;;;;;;;21.56;37.50;98924.52;135652;1269;22530;-63
2023/04/16 15:11:25;;;;;;;;;;;;;;;20.96;38.31;98926.76;135647;1272;22596;-63
2023/04/16 15:14:28;;;;;;;;;;;;;;;20.51;39.45;98931.46;135633;1270;23189;-63
2023/04/16 15:17:30;;;;;;;;;;;;;;;20.21;39.61;98934.80;135684;1270;22517;-63
2023/04/16 15:20:32;;;;;;;;;;;;;;;20.01;40.13;98935.35;135617;1269;22532;-63
2023/04/16 15:23:35;;;;;;;;;;;;;;;19.80;40.42;98934.70;135598;1270;22523;-62
2023/04/16 15:26:38;;;;;;;;;;;;;;;19.68;40.50;98934.36;135639;1269;22530;-63
2023/04/16 15:29:41;;;;;;;;;;;;;;;19.57;40.90;98935.30;135623;1271;23859;-62
2023/04/16 15:32:44;;;;;;;;;;;;;;;20.48;40.01;98936.69;135622;1273;22519;-62
2023/04/16 15:35:47;;;;;;;;;;;;;;;20.93;39.01;98937.87;135606;1267;22522;-63
2023/04/16 15:38:50;;;;;;;;;;;;;;;20.37;39.38;98940.99;135557;1278;22614;-64